createdAt,value
2018-01-26T00:01:42.888Z,75.40
2018-01-26T00:04:11.345Z,75.55
2018-01-26T00:06:39.955Z,66.43
2018-01-26T00:09:08.401Z,70.50
2018-01-26T00:11:36.817Z,60.80
2018-01-26T00:14:05.494Z,70.10
2018-01-26T00:16:33.953Z,81.12
2018-01-26T00:19:02.503Z,73.18
2018-01-26T00:21:31.755Z,64.82
2018-01-26T00:24:00.204Z,73.32
2018-01-26T00:26:28.625Z,64.78
2018-01-26T00:28:57.110Z,70.50
2018-01-26T00:31:25.543Z,63.20
2018-01-26T00:33:53.985Z,76.55
2018-01-26T00:36:23.080Z,66.10
2018-01-26T00:38:51.632Z,68.62
2018-01-26T00:41:20.115Z,61.60
2018-01-26T00:43:49.828Z,72.37
2018-01-26T00:46:18.346Z,67.95
2018-01-26T00:48:46.995Z,75.25
2018-01-26T00:51:16.027Z,69.25
2018-01-26T00:53:44.528Z,71.68
2018-01-26T00:56:13.058Z,65.95
2018-01-26T00:58:42.353Z,68.80
2018-01-26T01:01:10.812Z,76.70
2018-01-26T01:03:39.266Z,67.75
2018-01-26T01:06:08.140Z,80.53
2018-01-26T01:08:37.201Z,61.58
2018-01-26T01:11:05.663Z,69.35
2018-01-26T01:13:34.164Z,67.47
2018-01-26T01:16:02.612Z,76.70
2018-01-26T01:18:31.046Z,73.35
2018-01-26T01:20:59.527Z,70.95
2018-01-26T01:23:27.967Z,80.43
2018-01-26T01:25:56.415Z,78.75
2018-01-26T01:28:24.873Z,66.18
2018-01-26T01:30:53.343Z,78.37
2018-01-26T01:33:21.958Z,76.07
2018-01-26T01:35:50.516Z,61.88
2018-01-26T01:38:18.996Z,71.15
2018-01-26T01:40:47.478Z,66.70
2018-01-26T01:43:16.011Z,78.10
2018-01-26T01:45:44.562Z,71.15
2018-01-26T01:48:13.082Z,72.78
2018-01-26T01:50:42.165Z,90.45
2018-01-26T01:53:10.641Z,68.05
2018-01-26T01:55:39.162Z,85.03
2018-01-26T01:58:07.639Z,68.55
2018-01-26T02:00:36.153Z,66.28
2018-01-26T02:03:04.575Z,69.15
2018-01-26T02:05:33.225Z,74.95
2018-01-26T02:08:01.700Z,79.50
2018-01-26T02:10:30.127Z,75.70
2018-01-26T02:12:58.628Z,68.72
2018-01-26T02:15:27.067Z,70.35
2018-01-26T02:17:55.726Z,73.40
2018-01-26T02:20:24.513Z,78.53
2018-01-26T02:22:52.935Z,71.07
2018-01-26T02:25:21.446Z,72.87
2018-01-26T02:27:50.592Z,73.72
2018-01-26T02:30:19.285Z,75.37
2018-01-26T02:32:47.849Z,85.82
2018-01-26T02:35:17.170Z,73.35
2018-01-26T02:37:45.635Z,80.45
2018-01-26T02:40:14.150Z,79.05
2018-01-26T02:42:42.828Z,76.12
2018-01-26T02:45:11.384Z,85.05
2018-01-26T02:47:40.847Z,91.63
2018-01-26T02:50:09.372Z,79.90
2018-01-26T02:52:37.853Z,79.40
2018-01-26T02:55:06.309Z,76.05
2018-01-26T02:57:35.543Z,78.72
2018-01-26T03:00:04.111Z,73.30
2018-01-26T03:02:32.542Z,71.93
2018-01-26T03:05:01.069Z,75.62
2018-01-26T03:07:29.482Z,68.12
2018-01-26T03:09:57.923Z,72.97
2018-01-26T03:12:26.711Z,77.97
2018-01-26T03:14:55.186Z,83.68
2018-01-26T03:17:23.628Z,83.70
2018-01-26T03:19:52.152Z,79.28
2018-01-26T03:22:20.636Z,82.18
2018-01-26T03:24:49.144Z,71.62
2018-01-26T03:27:18.313Z,75.95
2018-01-26T03:29:46.797Z,83.20
2018-01-26T03:32:15.275Z,77.28
2018-01-26T03:34:43.789Z,76.00
2018-01-26T03:37:13.363Z,91.57
2018-01-26T03:39:41.845Z,80.93
2018-01-26T03:42:10.670Z,81.95
2018-01-26T03:44:39.212Z,86.53
2018-01-26T03:47:07.693Z,73.68
2018-01-26T03:49:36.287Z,88.97
2018-01-26T03:52:04.755Z,76.75
2018-01-26T03:54:33.235Z,75.68
2018-01-26T03:57:02.575Z,81.05
2018-01-26T03:59:31.072Z,92.07
2018-01-26T04:01:59.531Z,78.37
2018-01-26T04:04:28.080Z,76.03
2018-01-26T04:06:56.524Z,80.45
2018-01-26T04:09:24.942Z,72.25
2018-01-26T04:11:53.759Z,88.87
2018-01-26T04:14:22.204Z,81.97
2018-01-26T04:16:50.697Z,76.28
2018-01-26T04:19:20.052Z,86.20
2018-01-26T04:21:48.591Z,92.37
2018-01-26T04:24:17.677Z,88.10
2018-01-26T04:26:47.095Z,95.57
2018-01-26T04:29:15.582Z,81.78
2018-01-26T04:31:44.188Z,83.95
2018-01-26T04:34:12.949Z,83.75
2018-01-26T04:36:41.462Z,78.30
2018-01-26T04:39:10.717Z,71.85
2018-01-26T04:41:39.857Z,78.72
2018-01-26T04:44:08.302Z,84.28
2018-01-26T04:46:36.818Z,79.20
2018-01-26T04:49:06.144Z,91.80
2018-01-26T04:51:34.576Z,88.75
2018-01-26T04:54:03.007Z,80.70
2018-01-26T04:56:32.427Z,94.85
2018-01-26T04:59:00.884Z,94.80
2018-01-26T05:01:29.302Z,118.97
2018-01-26T05:03:57.781Z,96.40
2018-01-26T05:06:26.266Z,95.87
2018-01-26T05:08:54.778Z,100.25
2018-01-26T05:11:23.470Z,92.60
2018-01-26T05:13:51.974Z,82.85
2018-01-26T05:16:20.503Z,90.20
2018-01-26T05:18:49.091Z,87.62
2018-01-26T05:21:17.675Z,88.65
2018-01-26T05:23:46.175Z,94.35
2018-01-26T05:26:14.834Z,104.20
2018-01-26T05:28:43.418Z,93.68
2018-01-26T05:31:11.902Z,95.30
2018-01-26T05:33:40.424Z,97.00
2018-01-26T05:36:08.847Z,93.45
2018-01-26T05:38:37.284Z,84.18
2018-01-26T05:41:06.003Z,81.53
2018-01-26T05:43:34.454Z,96.05
2018-01-26T05:46:02.910Z,92.47
2018-01-26T05:48:31.662Z,84.72
2018-01-26T05:51:00.110Z,91.25
2018-01-26T05:53:28.605Z,86.07
2018-01-26T05:55:57.894Z,96.32
2018-01-26T05:58:26.357Z,99.85
2018-01-26T06:00:54.786Z,98.68
2018-01-26T06:03:23.316Z,106.80
2018-01-26T06:05:51.850Z,101.18
2018-01-26T06:08:20.386Z,110.35
2018-01-26T06:13:25.435Z,98.40
2018-01-26T06:15:54.014Z,102.70
2018-01-26T06:18:22.551Z,119.20
2018-01-26T06:20:51.150Z,114.90
2018-01-26T06:23:20.343Z,104.50
2018-01-26T06:25:48.832Z,114.28
2018-01-26T06:28:17.324Z,118.18
2018-01-26T06:30:45.976Z,120.65
2018-01-26T06:33:14.469Z,103.10
2018-01-26T06:35:42.950Z,106.60
2018-01-26T06:38:11.438Z,104.20
2018-01-26T06:40:39.851Z,106.65
2018-01-26T06:43:08.322Z,115.12
2018-01-26T06:45:37.715Z,106.80
2018-01-26T06:48:06.170Z,108.97
2018-01-26T06:50:34.738Z,96.87
2018-01-26T06:53:03.739Z,101.75
2018-01-26T06:55:32.211Z,106.90
2018-01-26T06:58:00.647Z,107.43
2018-01-26T07:00:29.122Z,99.43
2018-01-26T07:02:57.704Z,124.47
2018-01-26T07:05:26.141Z,112.65
2018-01-26T07:07:54.664Z,115.93
2018-01-26T07:10:23.118Z,115.78
2018-01-26T07:12:51.624Z,116.80
2018-01-26T07:15:20.274Z,111.90
2018-01-26T07:17:48.771Z,121.47
2018-01-26T07:20:18.101Z,147.43
2018-01-26T07:22:48.377Z,126.20
2018-01-26T07:25:16.862Z,109.03
2018-01-26T07:27:45.483Z,121.32
2018-01-26T07:30:14.994Z,132.80
2018-01-26T07:32:43.763Z,108.40
2018-01-26T07:35:13.049Z,108.60
2018-01-26T07:37:41.529Z,123.78
2018-01-26T07:40:09.989Z,125.93
2018-01-26T07:42:38.659Z,117.82
2018-01-26T07:45:07.138Z,126.18
2018-01-26T07:47:35.599Z,125.38
2018-01-26T07:50:04.134Z,160.73
2018-01-26T07:52:32.602Z,121.70
2018-01-26T07:55:01.097Z,110.32
2018-01-26T07:57:29.579Z,104.82
2018-01-26T07:59:58.077Z,109.03
2018-01-26T08:02:26.525Z,109.87
2018-01-26T08:04:54.978Z,96.53
2018-01-26T08:07:23.602Z,118.65
2018-01-26T08:09:52.185Z,117.10
2018-01-26T08:12:20.685Z,116.18
2018-01-26T08:14:49.938Z,108.40
2018-01-26T08:17:18.518Z,108.15
2018-01-26T08:19:47.066Z,107.05
2018-01-26T08:22:15.845Z,102.75
2018-01-26T08:24:44.365Z,128.10
2018-01-26T08:27:13.159Z,111.88
2018-01-26T08:29:41.641Z,103.55
2018-01-26T08:32:10.159Z,105.47
2018-01-26T08:34:38.595Z,106.90
2018-01-26T08:37:08.057Z,117.28
2018-01-26T08:39:36.507Z,101.68
2018-01-26T08:42:04.995Z,96.97
2018-01-26T08:44:34.315Z,100.15
2018-01-26T08:47:02.742Z,113.57
2018-01-26T08:49:31.171Z,101.45
2018-01-26T08:51:59.910Z,102.50
2018-01-26T08:54:28.361Z,100.87
2018-01-26T08:56:56.822Z,109.10
2018-01-26T08:59:25.485Z,107.07
2018-01-26T09:01:53.934Z,98.12
2018-01-26T09:04:22.413Z,96.07
2018-01-26T09:06:51.188Z,98.82
2018-01-26T09:09:19.650Z,94.70
2018-01-26T09:11:48.122Z,92.57
2018-01-26T09:14:16.853Z,88.45
2018-01-26T09:16:45.383Z,108.70
2018-01-26T09:19:14.111Z,111.55
2018-01-26T09:21:42.751Z,106.22
2018-01-26T09:24:11.243Z,137.23
2018-01-26T09:26:39.712Z,127.15
2018-01-26T09:29:08.179Z,116.28
2018-01-26T09:31:36.639Z,135.77
2018-01-26T09:34:05.081Z,126.47
2018-01-26T09:36:34.379Z,144.27
2018-01-26T09:39:02.834Z,136.15
2018-01-26T09:41:31.290Z,118.55
2018-01-26T09:43:59.900Z,213.55
2018-01-26T09:46:28.314Z,117.65
2018-01-26T09:48:56.779Z,134.52
2018-01-26T09:51:25.877Z,117.15
2018-01-26T09:53:54.316Z,133.93
2018-01-26T09:56:22.816Z,175.93
2018-01-26T09:58:52.055Z,136.65
2018-01-26T10:01:20.483Z,138.85
2018-01-26T10:03:48.964Z,98.68
2018-01-26T10:06:17.548Z,134.98
2018-01-26T10:08:46.126Z,146.00
2018-01-26T10:11:14.583Z,114.95
2018-01-26T10:13:43.200Z,138.65
2018-01-26T10:16:11.743Z,148.70
2018-01-26T10:18:40.201Z,160.05
2018-01-26T10:21:08.698Z,123.62
2018-01-26T10:23:37.123Z,136.48
2018-01-26T10:26:05.557Z,127.65
2018-01-26T10:28:34.041Z,107.75
2018-01-26T10:31:02.492Z,144.65
2018-01-26T10:33:31.424Z,121.78
2018-01-26T10:35:59.927Z,143.00
2018-01-26T10:38:28.409Z,147.95
2018-01-26T10:40:56.848Z,124.70
2018-01-26T10:43:25.614Z,129.38
2018-01-26T10:45:54.055Z,136.25
2018-01-26T10:48:22.507Z,123.82
2018-01-26T10:50:51.115Z,131.35
2018-01-26T10:53:19.877Z,156.50
2018-01-26T10:55:48.360Z,154.80
2018-01-26T10:58:17.350Z,156.40
2018-01-26T11:00:46.058Z,137.62
2018-01-26T11:03:14.656Z,140.93
2018-01-26T11:05:43.241Z,112.62
2018-01-26T11:08:11.721Z,114.00
2018-01-26T11:10:40.258Z,135.02
2018-01-26T11:13:08.734Z,115.07
2018-01-26T11:15:37.187Z,123.10
2018-01-26T11:18:05.638Z,108.82
2018-01-26T11:20:34.590Z,109.53
2018-01-26T11:23:03.079Z,101.07
2018-01-26T11:25:31.520Z,105.35
2018-01-26T11:28:00.108Z,113.45
2018-01-26T11:30:28.539Z,89.15
2018-01-26T11:32:56.968Z,92.72
2018-01-26T11:35:25.457Z,101.53
2018-01-26T11:37:54.205Z,99.35
2018-01-26T11:40:22.696Z,93.07
2018-01-26T11:42:51.729Z,89.68
2018-01-26T11:45:20.212Z,89.65
2018-01-26T11:47:48.687Z,98.00
2018-01-26T11:50:17.347Z,85.90
2018-01-26T11:52:45.787Z,88.60
2018-01-26T11:55:15.362Z,74.75
2018-01-26T11:57:44.011Z,87.35
2018-01-26T12:00:12.490Z,82.65
2018-01-26T12:02:41.617Z,84.30
2018-01-26T12:05:11.202Z,90.40
2018-01-26T12:07:39.680Z,80.43
2018-01-26T12:10:08.137Z,77.82
2018-01-26T12:12:36.904Z,73.47
2018-01-26T12:15:05.355Z,74.62
2018-01-26T12:17:33.796Z,70.82
2018-01-26T12:20:02.304Z,71.10
2018-01-26T12:22:30.777Z,70.18
2018-01-26T12:24:59.237Z,74.03
2018-01-26T12:27:27.765Z,80.20
2018-01-26T12:29:56.369Z,71.82
2018-01-26T12:32:24.809Z,68.82
2018-01-26T12:34:53.846Z,88.12
2018-01-26T12:37:22.330Z,77.50
2018-01-26T12:39:50.814Z,73.32
2018-01-26T12:42:19.425Z,68.35
2018-01-26T12:44:47.860Z,61.53
2018-01-26T12:47:16.416Z,66.57
2018-01-26T12:49:44.991Z,78.22
2018-01-26T12:52:13.453Z,51.58
2018-01-26T12:54:41.959Z,75.55
2018-01-26T12:57:10.879Z,60.10
2018-01-26T12:59:39.327Z,60.70
2018-01-26T13:02:07.775Z,61.80
2018-01-26T13:04:36.264Z,59.85
2018-01-26T13:07:04.699Z,66.53
2018-01-26T13:09:33.144Z,76.22
2018-01-26T13:12:01.622Z,68.30
2018-01-26T13:14:30.172Z,53.30
2018-01-26T13:16:58.624Z,58.47
2018-01-26T13:19:27.161Z,51.95
2018-01-26T13:21:55.633Z,64.00
2018-01-26T13:24:24.686Z,53.28
2018-01-26T13:26:53.265Z,57.95
2018-01-26T13:29:21.800Z,67.35
2018-01-26T13:31:50.353Z,61.00
2018-01-26T13:34:18.838Z,52.88
2018-01-26T13:36:47.454Z,43.70
2018-01-26T13:39:15.949Z,63.92
2018-01-26T13:41:44.630Z,59.00
2018-01-26T13:44:13.207Z,59.55
2018-01-26T13:46:41.673Z,52.90
2018-01-26T13:49:10.867Z,65.18
2018-01-26T13:51:39.280Z,53.17
2018-01-26T13:54:07.695Z,59.80
2018-01-26T13:56:36.178Z,55.10
2018-01-26T13:59:04.623Z,54.00
2018-01-26T14:01:33.037Z,47.70
2018-01-26T14:04:02.542Z,71.00
2018-01-26T14:06:31.027Z,59.72
2018-01-26T14:08:59.475Z,56.10
2018-01-26T14:11:29.190Z,61.28
2018-01-26T14:13:57.616Z,52.95
2018-01-26T14:16:26.043Z,64.45
2018-01-26T14:18:55.192Z,64.40
2018-01-26T14:21:23.645Z,66.85
2018-01-26T14:23:52.105Z,63.42
2018-01-26T14:26:20.669Z,59.95
2018-01-26T14:28:49.218Z,53.55
2018-01-26T14:31:17.726Z,66.05
2018-01-26T14:33:46.448Z,65.15
2018-01-26T14:36:14.923Z,67.00
2018-01-26T14:38:43.434Z,61.63
2018-01-26T14:41:12.512Z,58.70
2018-01-26T14:43:41.193Z,55.05
2018-01-26T14:46:09.626Z,67.93
2018-01-26T14:48:38.233Z,65.97
2018-01-26T14:51:06.764Z,60.58
2018-01-26T14:53:35.199Z,69.75
2018-01-26T14:56:04.660Z,64.18
2018-01-26T14:58:33.053Z,68.03
2018-01-26T15:01:01.513Z,72.50
2018-01-26T15:03:31.038Z,98.78
2018-01-26T15:05:59.460Z,97.62
2018-01-26T15:08:27.876Z,94.90
2018-01-26T15:10:56.347Z,97.10
2018-01-26T15:13:24.799Z,90.97
2018-01-26T15:15:53.238Z,85.10
2018-01-26T15:18:21.819Z,83.95
2018-01-26T15:20:50.259Z,102.97
2018-01-26T15:23:18.706Z,91.20
2018-01-26T15:25:47.353Z,72.25
2018-01-26T15:28:15.912Z,65.60
2018-01-26T15:30:44.377Z,94.20
2018-01-26T15:33:14.304Z,63.80
2018-01-26T15:35:43.447Z,65.72
2018-01-26T15:38:11.882Z,52.25
2018-01-26T15:40:40.503Z,57.78
2018-01-26T15:43:09.044Z,67.53
2018-01-26T15:45:37.469Z,56.75
2018-01-26T15:48:05.945Z,51.83
2018-01-26T15:50:34.348Z,61.88
2018-01-26T15:53:02.769Z,52.72
2018-01-26T15:55:31.561Z,56.25
2018-01-26T15:58:00.024Z,59.28
2018-01-26T16:00:28.508Z,65.12
2018-01-26T16:02:56.946Z,69.43
2018-01-26T16:05:25.441Z,67.15
2018-01-26T16:07:53.973Z,69.00
2018-01-26T16:10:22.755Z,69.68
2018-01-26T16:12:51.262Z,65.60
2018-01-26T16:15:19.780Z,74.22
2018-01-26T16:17:48.336Z,56.05
2018-01-26T16:20:16.821Z,65.72
2018-01-26T16:22:45.328Z,75.45
2018-01-26T16:25:14.124Z,65.62
2018-01-26T16:27:42.687Z,66.05
2018-01-26T16:30:11.256Z,69.53
2018-01-26T16:32:39.724Z,74.47
2018-01-26T16:35:08.153Z,70.57
2018-01-26T16:37:36.584Z,73.18
2018-01-26T16:40:05.120Z,89.28
2018-01-26T16:42:33.520Z,62.80
2018-01-26T16:45:02.008Z,78.30
2018-01-26T16:47:30.481Z,86.57
2018-01-26T16:49:58.938Z,83.25
2018-01-26T16:52:27.381Z,69.90
2018-01-26T16:54:55.906Z,79.62
2018-01-26T16:57:24.415Z,82.40
2018-01-26T16:59:52.847Z,69.62
2018-01-26T17:02:21.544Z,86.78
2018-01-26T17:04:50.003Z,91.22
2018-01-26T17:07:18.493Z,94.03
2018-01-26T17:09:47.265Z,92.65
2018-01-26T17:12:15.716Z,96.93
2018-01-26T17:14:44.420Z,100.95
2018-01-26T17:17:12.929Z,85.62
2018-01-26T17:19:42.847Z,74.55
2018-01-26T17:22:11.296Z,92.97
2018-01-26T17:24:39.783Z,87.47
2018-01-26T17:27:08.279Z,89.93
2018-01-26T17:29:36.742Z,84.43
2018-01-26T17:32:06.189Z,98.72
2018-01-26T17:34:34.668Z,103.53
2018-01-26T17:37:03.227Z,96.80
2018-01-26T17:39:31.744Z,100.50
2018-01-26T17:42:00.191Z,112.75
2018-01-26T17:44:28.643Z,99.60
2018-01-26T17:46:58.732Z,92.88
2018-01-26T17:49:27.140Z,84.15
2018-01-26T17:51:55.620Z,82.70
2018-01-26T17:54:24.585Z,98.35
2018-01-26T17:56:53.076Z,83.68
2018-01-26T17:59:21.547Z,81.97
2018-01-26T18:01:50.168Z,85.07
2018-01-26T18:04:18.680Z,88.95
2018-01-26T18:06:47.150Z,93.05
2018-01-26T18:09:16.250Z,110.22
2018-01-26T18:11:44.816Z,94.03
2018-01-26T18:14:13.336Z,102.57
2018-01-26T18:16:43.608Z,107.07
2018-01-26T18:19:12.132Z,123.55
2018-01-26T18:21:40.553Z,87.93
2018-01-26T18:24:09.010Z,94.87
2018-01-26T18:26:37.436Z,103.82
2018-01-26T18:29:05.896Z,95.60
2018-01-26T18:31:35.320Z,96.68
2018-01-26T18:34:03.906Z,89.90
2018-01-26T18:36:32.329Z,95.57
2018-01-26T18:39:00.842Z,107.32
2018-01-26T18:41:29.293Z,88.62
2018-01-26T18:43:57.850Z,87.32
2018-01-26T18:46:26.923Z,95.30
2018-01-26T18:48:55.405Z,78.53
2018-01-26T18:51:23.896Z,91.28
2018-01-26T18:53:52.879Z,85.50
2018-01-26T18:56:21.436Z,71.68
2018-01-26T18:58:49.856Z,67.30
2018-01-26T19:01:18.395Z,63.90
2018-01-26T19:03:47.282Z,59.80
2018-01-26T19:06:15.711Z,74.55
2018-01-26T19:08:44.305Z,52.55
2018-01-26T19:11:12.784Z,49.05
2018-01-26T19:13:41.257Z,55.83
2018-01-26T19:16:09.734Z,72.95
2018-01-26T19:18:39.672Z,64.45
2018-01-26T19:21:08.213Z,79.12
2018-01-26T19:23:36.704Z,64.43
2018-01-26T19:26:05.149Z,63.53
2018-01-26T19:28:33.562Z,55.95
2018-01-26T19:31:03.032Z,47.33
2018-01-26T19:33:31.468Z,81.32
2018-01-26T19:36:00.324Z,61.92
2018-01-26T19:38:28.922Z,62.47
2018-01-26T19:40:57.426Z,70.50
2018-01-26T19:43:26.017Z,79.37
2018-01-26T19:45:54.493Z,50.97
2018-01-26T19:48:22.919Z,62.28
2018-01-26T19:50:51.580Z,51.63
2018-01-26T19:53:20.096Z,51.65
2018-01-26T19:55:48.517Z,44.85
2018-01-26T19:58:17.049Z,55.12
2018-01-26T20:00:47.122Z,45.12
2018-01-26T20:03:32.410Z,49.85
2018-01-26T20:06:06.488Z,52.22
2018-01-26T20:08:40.565Z,56.55
2018-01-26T20:11:09.472Z,56.42
2018-01-26T20:13:40.153Z,66.60
2018-01-26T20:16:08.644Z,55.90
2018-01-26T20:18:37.329Z,56.50
2018-01-26T20:21:05.828Z,50.67
2018-01-26T20:23:34.303Z,40.03
2018-01-26T20:26:02.771Z,39.60
2018-01-26T20:28:31.192Z,36.97
2018-01-26T20:31:03.962Z,41.83
2018-01-26T20:33:33.324Z,39.67
2018-01-26T20:36:01.731Z,36.33
2018-01-26T20:38:32.668Z,39.40
2018-01-26T20:41:01.076Z,36.63
2018-01-26T20:43:29.551Z,43.15
2018-01-26T20:46:05.701Z,34.00
2018-01-26T20:48:34.894Z,38.90
2018-01-26T20:51:07.219Z,47.90
2018-01-26T20:53:39.423Z,46.47
2018-01-26T20:56:07.988Z,38.47
2018-01-26T20:58:36.494Z,44.25
2018-01-26T21:01:05.308Z,42.28
2018-01-26T21:03:33.963Z,53.50
2018-01-26T21:06:04.345Z,42.72
2018-01-26T21:08:33.622Z,42.42
2018-01-26T21:11:02.267Z,48.63
2018-01-26T21:13:31.084Z,55.00
2018-01-26T21:16:01.893Z,54.40
2018-01-26T21:18:34.193Z,46.03
2018-01-26T21:21:07.152Z,58.97
2018-01-26T21:23:37.819Z,52.60
2018-01-26T21:26:08.097Z,58.03
2018-01-26T21:28:36.793Z,62.72
2018-01-26T21:31:05.849Z,63.25
2018-01-26T21:33:35.511Z,69.82
2018-01-26T21:36:05.309Z,68.00
2018-01-26T21:38:36.257Z,75.50
2018-01-26T21:41:04.723Z,92.53
2018-01-26T21:43:33.427Z,55.15
2018-01-26T21:46:04.152Z,68.82
2018-01-26T21:48:34.503Z,61.40
2018-01-26T21:51:03.957Z,47.17
2018-01-26T21:53:32.773Z,47.40
2018-01-26T21:56:01.651Z,46.83
2018-01-26T21:58:31.049Z,48.75
2018-01-26T22:00:59.838Z,42.25
2018-01-26T22:03:29.299Z,43.45
2018-01-26T22:06:03.532Z,60.03
2018-01-26T22:08:32.049Z,46.95
2018-01-26T22:11:01.529Z,49.58
2018-01-26T22:13:31.443Z,44.78
2018-01-26T22:16:00.190Z,44.58
2018-01-26T22:18:28.739Z,48.40
2018-01-26T22:20:57.661Z,43.97
2018-01-26T22:23:26.657Z,60.72
2018-01-26T22:25:55.478Z,53.87
2018-01-26T22:28:24.988Z,53.85
2018-01-26T22:30:53.498Z,64.97
2018-01-26T22:33:21.975Z,43.65
2018-01-26T22:35:50.903Z,55.70
2018-01-26T22:38:19.428Z,57.47
2018-01-26T22:40:49.548Z,45.38
2018-01-26T22:43:18.769Z,48.78
2018-01-26T22:45:47.349Z,43.35
2018-01-26T22:48:15.912Z,38.75
2018-01-26T22:50:45.014Z,49.25
2018-01-26T22:53:13.599Z,60.15
2018-01-26T22:55:42.096Z,51.37
2018-01-26T22:58:11.888Z,47.38
2018-01-26T23:00:40.416Z,60.95
2018-01-26T23:03:09.654Z,48.63
2018-01-26T23:05:39.904Z,47.88
2018-01-26T23:08:08.350Z,46.13
2018-01-26T23:10:36.780Z,45.00
2018-01-26T23:13:05.427Z,58.70
2018-01-26T23:15:33.947Z,48.97
2018-01-26T23:18:02.637Z,53.45
2018-01-26T23:20:32.724Z,57.90
2018-01-26T23:23:01.225Z,51.88
2018-01-26T23:25:29.664Z,64.18
2018-01-26T23:27:58.301Z,56.22
2018-01-26T23:30:26.777Z,64.37
2018-01-26T23:32:55.207Z,90.95
2018-01-26T23:35:24.474Z,59.08
2018-01-26T23:37:53.633Z,66.85
2018-01-26T23:40:22.220Z,72.35
2018-01-26T23:42:50.812Z,68.20
2018-01-26T23:45:19.592Z,66.75
2018-01-26T23:47:52.583Z,75.18
2018-01-26T23:50:21.123Z,65.62
2018-01-26T23:52:51.397Z,79.20
2018-01-26T23:55:20.033Z,77.62
2018-01-26T23:57:48.727Z,60.38
